sensor_id;sensor_type;location;lat;lon;timestamp;P1;durP1;ratioP1;P2;durP2;ratioP2
6095;SDS011;25081;42.698;23.298;2023-08-24T00:01:33;11.60;;;9.47;;
6095;SDS011;25081;42.698;23.298;2023-08-24T00:03:44;10.43;;;8.93;;
6095;SDS011;25081;42.698;23.298;2023-08-24T00:05:54;12.00;;;8.00;;
6095;SDS011;25081;42.698;23.298;2023-08-24T00:08:06;9.90;;;8.77;;
6095;SDS011;25081;42.698;23.298;2023-08-24T00:10:16;13.40;;;9.30;;
6095;SDS011;25081;42.698;23.298;2023-08-24T00:12:27;11.70;;;9.70;;
6095;SDS011;25081;42.698;23.298;2023-08-24T00:14:37;9.10;;;8.00;;
6095;SDS011;25081;42.698;23.298;2023-08-24T00:16:48;11.30;;;8.70;;
6095;SDS011;25081;42.698;23.298;2023-08-24T00:18:58;10.77;;;9.33;;
6095;SDS011;25081;42.698;23.298;2023-08-24T00:21:09;10.87;;;8.60;;
6095;SDS011;25081;42.698;23.298;2023-08-24T00:23:19;11.67;;;9.87;;
6095;SDS011;25081;42.698;23.298;2023-08-24T00:25:30;9.60;;;8.50;;
6095;SDS011;25081;42.698;23.298;2023-08-24T00:27:40;10.07;;;8.70;;
6095;SDS011;25081;42.698;23.298;2023-08-24T00:29:51;10.73;;;8.80;;
6095;SDS011;25081;42.698;23.298;2023-08-24T00:32:02;11.23;;;9.10;;
6095;SDS011;25081;42.698;23.298;2023-08-24T00:34:13;12.60;;;9.57;;
6095;SDS011;25081;42.698;23.298;2023-08-24T00:36:24;12.57;;;10.23;;
6095;SDS011;25081;42.698;23.298;2023-08-24T00:38:34;13.70;;;9.40;;
6095;SDS011;25081;42.698;23.298;2023-08-24T00:40:44;13.27;;;10.43;;
6095;SDS011;25081;42.698;23.298;2023-08-24T00:42:55;11.80;;;9.60;;
6095;SDS011;25081;42.698;23.298;2023-08-24T00:45:07;14.90;;;10.63;;
6095;SDS011;25081;42.698;23.298;2023-08-24T00:47:18;12.27;;;10.17;;
6095;SDS011;25081;42.698;23.298;2023-08-24T00:49:29;12.50;;;10.17;;
6095;SDS011;25081;42.698;23.298;2023-08-24T00:51:39;10.60;;;9.50;;
6095;SDS011;25081;42.698;23.298;2023-08-24T00:53:49;12.60;;;9.90;;
6095;SDS011;25081;42.698;23.298;2023-08-24T00:56:00;11.10;;;9.70;;
6095;SDS011;25081;42.698;23.298;2023-08-24T00:58:11;13.50;;;9.80;;
6095;SDS011;25081;42.698;23.298;2023-08-24T01:00:22;13.60;;;10.53;;
6095;SDS011;25081;42.698;23.298;2023-08-24T01:04:43;11.20;;;9.10;;
6095;SDS011;25081;42.698;23.298;2023-08-24T01:06:53;11.77;;;9.57;;
6095;SDS011;25081;42.698;23.298;2023-08-24T01:09:04;11.93;;;9.73;;
6095;SDS011;25081;42.698;23.298;2023-08-24T01:11:17;12.20;;;9.23;;
6095;SDS011;25081;42.698;23.298;2023-08-24T01:13:27;10.10;;;8.93;;
6095;SDS011;25081;42.698;23.298;2023-08-24T01:15:38;11.83;;;9.23;;
6095;SDS011;25081;42.698;23.298;2023-08-24T01:17:49;9.70;;;8.27;;
6095;SDS011;25081;42.698;23.298;2023-08-24T01:19:59;11.00;;;9.50;;
6095;SDS011;25081;42.698;23.298;2023-08-24T01:22:17;10.00;;;8.30;;
6095;SDS011;25081;42.698;23.298;2023-08-24T01:24:30;10.20;;;8.77;;
6095;SDS011;25081;42.698;23.298;2023-08-24T01:26:39;13.90;;;10.30;;
6095;SDS011;25081;42.698;23.298;2023-08-24T01:28:50;12.60;;;10.07;;
6095;SDS011;25081;42.698;23.298;2023-08-24T01:31:01;10.90;;;8.70;;
6095;SDS011;25081;42.698;23.298;2023-08-24T01:33:11;11.20;;;9.90;;
6095;SDS011;25081;42.698;23.298;2023-08-24T01:35:22;12.43;;;9.20;;
6095;SDS011;25081;42.698;23.298;2023-08-24T01:37:33;13.70;;;9.83;;
6095;SDS011;25081;42.698;23.298;2023-08-24T01:39:45;15.97;;;11.37;;
6095;SDS011;25081;42.698;23.298;2023-08-24T01:41:54;11.33;;;8.90;;
6095;SDS011;25081;42.698;23.298;2023-08-24T01:44:04;11.87;;;9.83;;
6095;SDS011;25081;42.698;23.298;2023-08-24T01:46:15;10.70;;;8.83;;
6095;SDS011;25081;42.698;23.298;2023-08-24T01:48:26;12.70;;;10.30;;
6095;SDS011;25081;42.698;23.298;2023-08-24T01:50:36;12.13;;;9.67;;
6095;SDS011;25081;42.698;23.298;2023-08-24T01:52:47;12.27;;;10.17;;
6095;SDS011;25081;42.698;23.298;2023-08-24T01:54:58;12.23;;;9.97;;
6095;SDS011;25081;42.698;23.298;2023-08-24T01:57:08;9.97;;;8.40;;
6095;SDS011;25081;42.698;23.298;2023-08-24T01:59:18;15.40;;;10.00;;
6095;SDS011;25081;42.698;23.298;2023-08-24T02:01:29;12.23;;;9.13;;
6095;SDS011;25081;42.698;23.298;2023-08-24T02:03:39;11.47;;;9.20;;
6095;SDS011;25081;42.698;23.298;2023-08-24T02:05:50;11.10;;;9.10;;
6095;SDS011;25081;42.698;23.298;2023-08-24T02:08:00;13.90;;;8.63;;
6095;SDS011;25081;42.698;23.298;2023-08-24T02:10:11;11.53;;;9.40;;
6095;SDS011;25081;42.698;23.298;2023-08-24T02:12:22;11.37;;;8.70;;
6095;SDS011;25081;42.698;23.298;2023-08-24T02:14:32;11.30;;;9.70;;
6095;SDS011;25081;42.698;23.298;2023-08-24T02:16:43;10.63;;;9.10;;
6095;SDS011;25081;42.698;23.298;2023-08-24T02:18:53;13.60;;;10.27;;
6095;SDS011;25081;42.698;23.298;2023-08-24T02:21:07;10.53;;;9.07;;
6095;SDS011;25081;42.698;23.298;2023-08-24T02:23:18;11.23;;;9.37;;
6095;SDS011;25081;42.698;23.298;2023-08-24T02:25:28;10.73;;;8.80;;
6095;SDS011;25081;42.698;23.298;2023-08-24T02:27:39;9.67;;;8.43;;
6095;SDS011;25081;42.698;23.298;2023-08-24T02:29:50;10.53;;;8.07;;
6095;SDS011;25081;42.698;23.298;2023-08-24T02:32:00;10.67;;;8.90;;
6095;SDS011;25081;42.698;23.298;2023-08-24T02:34:11;12.20;;;8.90;;
6095;SDS011;25081;42.698;23.298;2023-08-24T02:36:21;12.20;;;8.87;;
6095;SDS011;25081;42.698;23.298;2023-08-24T02:38:32;11.70;;;9.17;;
6095;SDS011;25081;42.698;23.298;2023-08-24T02:40:42;10.63;;;8.50;;
6095;SDS011;25081;42.698;23.298;2023-08-24T02:42:53;11.37;;;9.20;;
6095;SDS011;25081;42.698;23.298;2023-08-24T02:45:04;11.57;;;9.17;;
6095;SDS011;25081;42.698;23.298;2023-08-24T02:47:16;11.87;;;9.70;;
6095;SDS011;25081;42.698;23.298;2023-08-24T02:49:26;12.63;;;10.73;;
6095;SDS011;25081;42.698;23.298;2023-08-24T02:51:37;12.40;;;9.77;;
6095;SDS011;25081;42.698;23.298;2023-08-24T02:53:47;13.10;;;10.20;;
6095;SDS011;25081;42.698;23.298;2023-08-24T02:55:58;13.60;;;10.50;;
6095;SDS011;25081;42.698;23.298;2023-08-24T02:58:08;13.43;;;11.20;;
6095;SDS011;25081;42.698;23.298;2023-08-24T03:00:19;14.23;;;9.90;;
6095;SDS011;25081;42.698;23.298;2023-08-24T03:02:29;13.47;;;10.40;;
6095;SDS011;25081;42.698;23.298;2023-08-24T03:04:40;13.90;;;10.30;;
6095;SDS011;25081;42.698;23.298;2023-08-24T03:06:50;13.83;;;10.10;;
6095;SDS011;25081;42.698;23.298;2023-08-24T03:09:01;15.03;;;9.93;;
6095;SDS011;25081;42.698;23.298;2023-08-24T03:11:12;12.23;;;9.70;;
6095;SDS011;25081;42.698;23.298;2023-08-24T03:13:22;11.63;;;8.93;;
6095;SDS011;25081;42.698;23.298;2023-08-24T03:15:33;12.20;;;9.90;;
6095;SDS011;25081;42.698;23.298;2023-08-24T03:17:45;13.87;;;9.60;;
6095;SDS011;25081;42.698;23.298;2023-08-24T03:19:55;11.93;;;9.47;;
6095;SDS011;25081;42.698;23.298;2023-08-24T03:22:06;12.50;;;9.27;;
6095;SDS011;25081;42.698;23.298;2023-08-24T03:24:16;12.40;;;9.67;;
6095;SDS011;25081;42.698;23.298;2023-08-24T03:26:27;12.50;;;9.20;;
6095;SDS011;25081;42.698;23.298;2023-08-24T03:28:38;13.80;;;11.00;;
6095;SDS011;25081;42.698;23.298;2023-08-24T03:30:49;12.07;;;9.70;;
6095;SDS011;25081;42.698;23.298;2023-08-24T03:32:58;12.40;;;10.30;;
6095;SDS011;25081;42.698;23.298;2023-08-24T03:35:09;15.60;;;10.33;;
6095;SDS011;25081;42.698;23.298;2023-08-24T03:37:20;16.93;;;12.13;;
6095;SDS011;25081;42.698;23.298;2023-08-24T03:39:30;13.93;;;10.93;;
6095;SDS011;25081;42.698;23.298;2023-08-24T03:41:41;12.00;;;9.30;;
6095;SDS011;25081;42.698;23.298;2023-08-24T03:43:51;12.27;;;9.10;;
6095;SDS011;25081;42.698;23.298;2023-08-24T03:46:02;11.23;;;9.20;;
6095;SDS011;25081;42.698;23.298;2023-08-24T03:48:12;12.60;;;9.90;;
6095;SDS011;25081;42.698;23.298;2023-08-24T03:50:23;14.13;;;10.73;;
6095;SDS011;25081;42.698;23.298;2023-08-24T03:52:33;11.63;;;9.80;;
6095;SDS011;25081;42.698;23.298;2023-08-24T03:54:44;13.30;;;10.70;;
6095;SDS011;25081;42.698;23.298;2023-08-24T03:56:54;11.60;;;9.57;;
6095;SDS011;25081;42.698;23.298;2023-08-24T03:59:05;13.20;;;10.80;;
6095;SDS011;25081;42.698;23.298;2023-08-24T04:01:15;13.00;;;10.00;;
6095;SDS011;25081;42.698;23.298;2023-08-24T04:03:26;11.70;;;9.80;;
6095;SDS011;25081;42.698;23.298;2023-08-24T04:05:36;11.50;;;9.93;;
6095;SDS011;25081;42.698;23.298;2023-08-24T04:07:47;11.67;;;9.93;;
6095;SDS011;25081;42.698;23.298;2023-08-24T04:09:57;12.73;;;10.20;;
6095;SDS011;25081;42.698;23.298;2023-08-24T04:12:09;13.37;;;9.40;;
6095;SDS011;25081;42.698;23.298;2023-08-24T04:14:19;12.43;;;9.80;;
6095;SDS011;25081;42.698;23.298;2023-08-24T04:16:30;13.50;;;10.50;;
6095;SDS011;25081;42.698;23.298;2023-08-24T04:18:40;15.13;;;10.60;;
6095;SDS011;25081;42.698;23.298;2023-08-24T04:20:52;14.30;;;11.60;;
6095;SDS011;25081;42.698;23.298;2023-08-24T04:23:03;16.37;;;12.50;;
6095;SDS011;25081;42.698;23.298;2023-08-24T04:25:13;13.90;;;11.67;;
6095;SDS011;25081;42.698;23.298;2023-08-24T04:27:24;16.80;;;13.00;;
6095;SDS011;25081;42.698;23.298;2023-08-24T04:29:35;13.53;;;10.93;;
6095;SDS011;25081;42.698;23.298;2023-08-24T04:31:45;15.57;;;12.43;;
6095;SDS011;25081;42.698;23.298;2023-08-24T04:33:56;15.47;;;11.87;;
6095;SDS011;25081;42.698;23.298;2023-08-24T04:36:06;15.63;;;11.23;;
6095;SDS011;25081;42.698;23.298;2023-08-24T04:38:17;16.53;;;12.57;;
6095;SDS011;25081;42.698;23.298;2023-08-24T04:40:28;14.47;;;11.37;;
6095;SDS011;25081;42.698;23.298;2023-08-24T04:42:39;14.90;;;11.13;;
6095;SDS011;25081;42.698;23.298;2023-08-24T04:44:51;14.67;;;11.03;;
6095;SDS011;25081;42.698;23.298;2023-08-24T04:47:01;14.63;;;10.30;;
6095;SDS011;25081;42.698;23.298;2023-08-24T04:49:12;14.50;;;11.17;;
6095;SDS011;25081;42.698;23.298;2023-08-24T04:51:23;13.37;;;10.53;;
6095;SDS011;25081;42.698;23.298;2023-08-24T04:53:33;13.60;;;10.73;;
6095;SDS011;25081;42.698;23.298;2023-08-24T04:55:44;15.77;;;11.40;;
6095;SDS011;25081;42.698;23.298;2023-08-24T04:57:54;13.30;;;10.63;;
6095;SDS011;25081;42.698;23.298;2023-08-24T05:00:06;12.07;;;10.13;;
6095;SDS011;25081;42.698;23.298;2023-08-24T05:02:18;14.77;;;11.30;;
6095;SDS011;25081;42.698;23.298;2023-08-24T05:04:28;13.80;;;11.53;;
6095;SDS011;25081;42.698;23.298;2023-08-24T05:06:39;13.83;;;11.10;;
6095;SDS011;25081;42.698;23.298;2023-08-24T05:08:49;12.30;;;10.30;;
6095;SDS011;25081;42.698;23.298;2023-08-24T05:11:00;15.37;;;11.27;;
6095;SDS011;25081;42.698;23.298;2023-08-24T05:13:10;14.10;;;10.73;;
6095;SDS011;25081;42.698;23.298;2023-08-24T05:15:21;16.63;;;12.00;;
6095;SDS011;25081;42.698;23.298;2023-08-24T05:17:32;13.23;;;11.07;;
6095;SDS011;25081;42.698;23.298;2023-08-24T05:19:42;16.30;;;11.93;;
6095;SDS011;25081;42.698;23.298;2023-08-24T05:21:53;13.57;;;10.77;;
6095;SDS011;25081;42.698;23.298;2023-08-24T05:24:04;15.37;;;11.63;;
6095;SDS011;25081;42.698;23.298;2023-08-24T05:26:15;16.53;;;12.43;;
6095;SDS011;25081;42.698;23.298;2023-08-24T05:28:26;14.67;;;11.63;;
6095;SDS011;25081;42.698;23.298;2023-08-24T05:30:36;14.27;;;11.53;;
6095;SDS011;25081;42.698;23.298;2023-08-24T05:32:47;12.93;;;10.50;;
6095;SDS011;25081;42.698;23.298;2023-08-24T05:34:58;17.67;;;12.50;;
6095;SDS011;25081;42.698;23.298;2023-08-24T05:37:08;16.97;;;12.40;;
6095;SDS011;25081;42.698;23.298;2023-08-24T05:39:19;15.30;;;12.47;;
6095;SDS011;25081;42.698;23.298;2023-08-24T05:41:29;17.20;;;11.90;;
6095;SDS011;25081;42.698;23.298;2023-08-24T05:43:40;14.73;;;12.27;;
6095;SDS011;25081;42.698;23.298;2023-08-24T05:45:51;13.93;;;11.43;;
6095;SDS011;25081;42.698;23.298;2023-08-24T05:48:01;14.43;;;11.47;;
6095;SDS011;25081;42.698;23.298;2023-08-24T05:50:12;17.20;;;12.00;;
6095;SDS011;25081;42.698;23.298;2023-08-24T05:52:23;15.30;;;11.70;;
6095;SDS011;25081;42.698;23.298;2023-08-24T05:54:36;12.27;;;10.47;;
6095;SDS011;25081;42.698;23.298;2023-08-24T05:56:47;16.50;;;10.50;;
6095;SDS011;25081;42.698;23.298;2023-08-24T05:58:58;12.93;;;11.07;;
6095;SDS011;25081;42.698;23.298;2023-08-24T06:01:08;12.83;;;10.90;;
6095;SDS011;25081;42.698;23.298;2023-08-24T06:03:19;13.50;;;11.43;;
6095;SDS011;25081;42.698;23.298;2023-08-24T06:05:30;14.27;;;11.20;;
6095;SDS011;25081;42.698;23.298;2023-08-24T06:07:41;15.20;;;11.80;;
6095;SDS011;25081;42.698;23.298;2023-08-24T06:09:51;13.10;;;11.47;;
6095;SDS011;25081;42.698;23.298;2023-08-24T06:12:02;12.43;;;10.67;;
6095;SDS011;25081;42.698;23.298;2023-08-24T06:14:14;15.03;;;11.20;;
6095;SDS011;25081;42.698;23.298;2023-08-24T06:16:25;11.47;;;10.23;;
6095;SDS011;25081;42.698;23.298;2023-08-24T06:18:35;12.40;;;10.53;;
6095;SDS011;25081;42.698;23.298;2023-08-24T06:20:46;16.10;;;11.60;;
6095;SDS011;25081;42.698;23.298;2023-08-24T06:22:57;16.93;;;11.73;;
6095;SDS011;25081;42.698;23.298;2023-08-24T06:25:08;13.93;;;11.50;;
6095;SDS011;25081;42.698;23.298;2023-08-24T06:27:18;11.07;;;9.90;;
6095;SDS011;25081;42.698;23.298;2023-08-24T06:29:29;12.77;;;11.40;;
6095;SDS011;25081;42.698;23.298;2023-08-24T06:31:39;13.97;;;11.53;;
6095;SDS011;25081;42.698;23.298;2023-08-24T06:33:50;12.00;;;9.67;;
6095;SDS011;25081;42.698;23.298;2023-08-24T06:36:00;11.53;;;9.70;;
6095;SDS011;25081;42.698;23.298;2023-08-24T06:38:11;12.00;;;10.47;;
6095;SDS011;25081;42.698;23.298;2023-08-24T06:40:21;12.67;;;11.13;;
6095;SDS011;25081;42.698;23.298;2023-08-24T06:42:32;11.43;;;10.30;;
6095;SDS011;25081;42.698;23.298;2023-08-24T06:44:42;13.10;;;9.47;;
6095;SDS011;25081;42.698;23.298;2023-08-24T06:46:53;11.53;;;10.37;;
6095;SDS011;25081;42.698;23.298;2023-08-24T06:49:03;14.43;;;10.47;;
6095;SDS011;25081;42.698;23.298;2023-08-24T06:51:14;10.80;;;9.17;;
6095;SDS011;25081;42.698;23.298;2023-08-24T06:53:24;12.60;;;9.83;;
6095;SDS011;25081;42.698;23.298;2023-08-24T06:55:35;10.10;;;9.10;;
6095;SDS011;25081;42.698;23.298;2023-08-24T06:57:48;10.20;;;8.93;;
6095;SDS011;25081;42.698;23.298;2023-08-24T06:59:58;10.50;;;9.50;;
6095;SDS011;25081;42.698;23.298;2023-08-24T07:02:09;10.90;;;9.50;;
6095;SDS011;25081;42.698;23.298;2023-08-24T07:04:19;10.10;;;9.10;;
6095;SDS011;25081;42.698;23.298;2023-08-24T07:06:30;11.23;;;9.10;;
6095;SDS011;25081;42.698;23.298;2023-08-24T07:08:40;10.47;;;9.37;;
6095;SDS011;25081;42.698;23.298;2023-08-24T07:10:51;13.03;;;10.43;;
6095;SDS011;25081;42.698;23.298;2023-08-24T07:13:01;11.70;;;10.50;;
6095;SDS011;25081;42.698;23.298;2023-08-24T07:15:12;12.50;;;9.70;;
6095;SDS011;25081;42.698;23.298;2023-08-24T07:17:22;10.97;;;9.87;;
6095;SDS011;25081;42.698;23.298;2023-08-24T07:19:33;11.40;;;10.20;;
6095;SDS011;25081;42.698;23.298;2023-08-24T07:21:44;11.40;;;10.20;;
6095;SDS011;25081;42.698;23.298;2023-08-24T07:23:54;11.03;;;9.93;;
6095;SDS011;25081;42.698;23.298;2023-08-24T07:26:05;10.50;;;9.50;;
6095;SDS011;25081;42.698;23.298;2023-08-24T07:28:15;10.67;;;9.57;;
6095;SDS011;25081;42.698;23.298;2023-08-24T07:30:26;10.50;;;9.50;;
6095;SDS011;25081;42.698;23.298;2023-08-24T07:32:36;11.23;;;10.13;;
6095;SDS011;25081;42.698;23.298;2023-08-24T07:34:48;13.10;;;11.27;;
6095;SDS011;25081;42.698;23.298;2023-08-24T07:36:58;10.93;;;9.83;;
6095;SDS011;25081;42.698;23.298;2023-08-24T07:39:09;12.07;;;10.87;;
6095;SDS011;25081;42.698;23.298;2023-08-24T07:41:20;11.60;;;10.50;;
6095;SDS011;25081;42.698;23.298;2023-08-24T07:43:30;13.50;;;9.83;;
6095;SDS011;25081;42.698;23.298;2023-08-24T07:45:40;11.70;;;10.37;;
6095;SDS011;25081;42.698;23.298;2023-08-24T07:47:51;11.20;;;9.47;;
6095;SDS011;25081;42.698;23.298;2023-08-24T07:50:02;16.30;;;10.23;;
6095;SDS011;25081;42.698;23.298;2023-08-24T07:52:13;12.07;;;10.10;;
6095;SDS011;25081;42.698;23.298;2023-08-24T07:54:23;10.40;;;9.40;;
6095;SDS011;25081;42.698;23.298;2023-08-24T07:56:34;9.23;;;8.33;;
6095;SDS011;25081;42.698;23.298;2023-08-24T07:58:44;10.43;;;9.33;;
6095;SDS011;25081;42.698;23.298;2023-08-24T08:00:55;8.93;;;8.03;;
6095;SDS011;25081;42.698;23.298;2023-08-24T08:03:05;8.77;;;7.97;;
6095;SDS011;25081;42.698;23.298;2023-08-24T08:05:16;10.00;;;9.00;;
6095;SDS011;25081;42.698;23.298;2023-08-24T08:07:27;9.70;;;8.80;;
6095;SDS011;25081;42.698;23.298;2023-08-24T08:09:37;10.17;;;8.53;;
6095;SDS011;25081;42.698;23.298;2023-08-24T08:11:48;10.37;;;8.90;;
6095;SDS011;25081;42.698;23.298;2023-08-24T08:13:58;10.40;;;9.30;;
6095;SDS011;25081;42.698;23.298;2023-08-24T08:16:09;9.93;;;8.90;;
6095;SDS011;25081;42.698;23.298;2023-08-24T08:18:20;10.67;;;9.50;;
6095;SDS011;25081;42.698;23.298;2023-08-24T08:20:30;9.60;;;8.70;;
6095;SDS011;25081;42.698;23.298;2023-08-24T08:22:41;10.50;;;9.20;;
6095;SDS011;25081;42.698;23.298;2023-08-24T08:24:51;10.10;;;8.80;;
6095;SDS011;25081;42.698;23.298;2023-08-24T08:27:02;9.97;;;9.07;;
6095;SDS011;25081;42.698;23.298;2023-08-24T08:29:13;10.13;;;9.23;;
6095;SDS011;25081;42.698;23.298;2023-08-24T08:31:24;9.10;;;8.23;;
6095;SDS011;25081;42.698;23.298;2023-08-24T08:33:34;9.53;;;8.63;;
6095;SDS011;25081;42.698;23.298;2023-08-24T08:35:45;9.77;;;8.87;;
6095;SDS011;25081;42.698;23.298;2023-08-24T08:37:55;8.80;;;7.90;;
6095;SDS011;25081;42.698;23.298;2023-08-24T08:40:08;16.97;;;10.50;;
6095;SDS011;25081;42.698;23.298;2023-08-24T08:42:20;9.67;;;8.67;;
6095;SDS011;25081;42.698;23.298;2023-08-24T08:44:31;8.97;;;8.10;;
6095;SDS011;25081;42.698;23.298;2023-08-24T08:46:42;9.33;;;8.43;;
6095;SDS011;25081;42.698;23.298;2023-08-24T08:48:51;9.90;;;8.90;;
6095;SDS011;25081;42.698;23.298;2023-08-24T08:51:02;9.97;;;9.07;;
6095;SDS011;25081;42.698;23.298;2023-08-24T08:53:13;10.77;;;9.67;;
6095;SDS011;25081;42.698;23.298;2023-08-24T08:55:23;9.50;;;8.47;;
6095;SDS011;25081;42.698;23.298;2023-08-24T08:57:33;9.47;;;8.63;;
6095;SDS011;25081;42.698;23.298;2023-08-24T08:59:44;9.30;;;8.40;;
6095;SDS011;25081;42.698;23.298;2023-08-24T09:01:54;9.40;;;8.60;;
6095;SDS011;25081;42.698;23.298;2023-08-24T09:04:05;9.67;;;8.67;;
6095;SDS011;25081;42.698;23.298;2023-08-24T09:06:16;8.37;;;7.57;;
6095;SDS011;25081;42.698;23.298;2023-08-24T09:08:26;11.10;;;10.00;;
6095;SDS011;25081;42.698;23.298;2023-08-24T09:10:37;8.43;;;7.70;;
6095;SDS011;25081;42.698;23.298;2023-08-24T09:12:47;9.50;;;8.60;;
6095;SDS011;25081;42.698;23.298;2023-08-24T09:14:58;10.30;;;9.20;;
6095;SDS011;25081;42.698;23.298;2023-08-24T09:17:09;9.93;;;9.03;;
6095;SDS011;25081;42.698;23.298;2023-08-24T09:19:19;9.97;;;9.07;;
6095;SDS011;25081;42.698;23.298;2023-08-24T09:21:29;9.20;;;8.30;;
6095;SDS011;25081;42.698;23.298;2023-08-24T09:23:43;10.47;;;9.37;;
6095;SDS011;25081;42.698;23.298;2023-08-24T09:25:53;11.57;;;9.77;;
6095;SDS011;25081;42.698;23.298;2023-08-24T09:28:05;11.33;;;9.10;;
6095;SDS011;25081;42.698;23.298;2023-08-24T09:30:15;9.60;;;8.70;;
6095;SDS011;25081;42.698;23.298;2023-08-24T09:32:28;9.67;;;8.53;;
6095;SDS011;25081;42.698;23.298;2023-08-24T09:34:38;10.47;;;9.57;;
6095;SDS011;25081;42.698;23.298;2023-08-24T09:36:48;11.20;;;9.10;;
6095;SDS011;25081;42.698;23.298;2023-08-24T09:38:59;10.50;;;9.40;;
6095;SDS011;25081;42.698;23.298;2023-08-24T09:41:11;11.83;;;10.43;;
6095;SDS011;25081;42.698;23.298;2023-08-24T09:43:21;10.70;;;9.70;;
6095;SDS011;25081;42.698;23.298;2023-08-24T09:45:32;10.73;;;9.10;;
6095;SDS011;25081;42.698;23.298;2023-08-24T09:47:46;11.80;;;10.60;;
6095;SDS011;25081;42.698;23.298;2023-08-24T09:50:00;10.30;;;9.30;;
6095;SDS011;25081;42.698;23.298;2023-08-24T09:52:10;10.40;;;9.40;;
6095;SDS011;25081;42.698;23.298;2023-08-24T09:54:21;10.17;;;9.27;;
6095;SDS011;25081;42.698;23.298;2023-08-24T09:56:33;9.80;;;8.83;;
6095;SDS011;25081;42.698;23.298;2023-08-24T09:58:42;9.00;;;8.13;;
6095;SDS011;25081;42.698;23.298;2023-08-24T10:00:52;8.90;;;8.10;;
6095;SDS011;25081;42.698;23.298;2023-08-24T10:03:04;9.60;;;8.70;;
6095;SDS011;25081;42.698;23.298;2023-08-24T10:05:14;10.17;;;9.17;;
6095;SDS011;25081;42.698;23.298;2023-08-24T10:07:25;8.50;;;7.70;;
6095;SDS011;25081;42.698;23.298;2023-08-24T10:09:37;9.63;;;7.83;;
6095;SDS011;25081;42.698;23.298;2023-08-24T10:11:48;9.20;;;8.20;;
6095;SDS011;25081;42.698;23.298;2023-08-24T10:13:59;8.97;;;8.07;;
6095;SDS011;25081;42.698;23.298;2023-08-24T10:16:09;9.20;;;8.20;;
6095;SDS011;25081;42.698;23.298;2023-08-24T10:18:20;9.70;;;8.70;;
6095;SDS011;25081;42.698;23.298;2023-08-24T10:20:30;9.33;;;8.43;;
6095;SDS011;25081;42.698;23.298;2023-08-24T10:22:41;8.70;;;7.90;;
6095;SDS011;25081;42.698;23.298;2023-08-24T10:24:52;9.23;;;8.20;;
6095;SDS011;25081;42.698;23.298;2023-08-24T10:27:02;8.30;;;7.50;;
6095;SDS011;25081;42.698;23.298;2023-08-24T10:29:13;8.57;;;7.77;;
6095;SDS011;25081;42.698;23.298;2023-08-24T10:31:24;7.70;;;7.00;;
6095;SDS011;25081;42.698;23.298;2023-08-24T10:33:35;8.43;;;7.60;;
6095;SDS011;25081;42.698;23.298;2023-08-24T10:35:45;8.80;;;7.93;;
6095;SDS011;25081;42.698;23.298;2023-08-24T10:37:56;9.27;;;8.37;;
6095;SDS011;25081;42.698;23.298;2023-08-24T10:40:09;8.57;;;7.77;;
6095;SDS011;25081;42.698;23.298;2023-08-24T10:42:20;9.47;;;8.47;;
6095;SDS011;25081;42.698;23.298;2023-08-24T10:44:34;9.80;;;8.63;;
6095;SDS011;25081;42.698;23.298;2023-08-24T10:46:45;9.50;;;8.60;;
6095;SDS011;25081;42.698;23.298;2023-08-24T10:48:58;9.73;;;8.80;;
6095;SDS011;25081;42.698;23.298;2023-08-24T10:51:18;8.10;;;7.30;;
6095;SDS011;25081;42.698;23.298;2023-08-24T10:53:39;8.67;;;7.80;;
6095;SDS011;25081;42.698;23.298;2023-08-24T10:55:49;9.53;;;8.60;;
6095;SDS011;25081;42.698;23.298;2023-08-24T10:57:59;9.87;;;8.90;;
6095;SDS011;25081;42.698;23.298;2023-08-24T11:00:11;9.67;;;7.70;;
6095;SDS011;25081;42.698;23.298;2023-08-24T11:02:22;9.27;;;8.37;;
6095;SDS011;25081;42.698;23.298;2023-08-24T11:04:32;10.37;;;9.37;;
6095;SDS011;25081;42.698;23.298;2023-08-24T11:06:53;7.97;;;7.23;;
6095;SDS011;25081;42.698;23.298;2023-08-24T11:09:07;7.30;;;6.60;;
6095;SDS011;25081;42.698;23.298;2023-08-24T11:11:20;7.00;;;6.30;;
6095;SDS011;25081;42.698;23.298;2023-08-24T11:13:31;7.43;;;6.60;;
6095;SDS011;25081;42.698;23.298;2023-08-24T11:15:42;8.20;;;7.40;;
6095;SDS011;25081;42.698;23.298;2023-08-24T11:18:01;8.40;;;7.60;;
6095;SDS011;25081;42.698;23.298;2023-08-24T11:20:45;8.87;;;7.97;;
6095;SDS011;25081;42.698;23.298;2023-08-24T11:22:56;10.03;;;8.73;;
6095;SDS011;25081;42.698;23.298;2023-08-24T11:25:07;9.77;;;8.87;;
6095;SDS011;25081;42.698;23.298;2023-08-24T11:27:21;9.90;;;7.83;;
6095;SDS011;25081;42.698;23.298;2023-08-24T11:29:32;9.00;;;8.07;;
6095;SDS011;25081;42.698;23.298;2023-08-24T11:31:42;9.77;;;8.40;;
6095;SDS011;25081;42.698;23.298;2023-08-24T11:33:54;8.97;;;7.80;;
6095;SDS011;25081;42.698;23.298;2023-08-24T11:36:05;8.80;;;7.60;;
6095;SDS011;25081;42.698;23.298;2023-08-24T11:38:15;8.00;;;7.20;;
6095;SDS011;25081;42.698;23.298;2023-08-24T11:40:26;8.37;;;7.57;;
6095;SDS011;25081;42.698;23.298;2023-08-24T11:42:36;8.00;;;7.20;;
6095;SDS011;25081;42.698;23.298;2023-08-24T11:44:47;9.27;;;7.30;;
6095;SDS011;25081;42.698;23.298;2023-08-24T11:46:57;9.23;;;8.07;;
6095;SDS011;25081;42.698;23.298;2023-08-24T11:49:08;12.70;;;7.47;;
6095;SDS011;25081;42.698;23.298;2023-08-24T11:51:18;9.60;;;7.30;;
6095;SDS011;25081;42.698;23.298;2023-08-24T11:53:29;8.97;;;8.03;;
6095;SDS011;25081;42.698;23.298;2023-08-24T11:55:40;9.10;;;7.97;;
6095;SDS011;25081;42.698;23.298;2023-08-24T11:57:51;8.43;;;7.30;;
6095;SDS011;25081;42.698;23.298;2023-08-24T12:00:01;8.30;;;6.77;;
6095;SDS011;25081;42.698;23.298;2023-08-24T12:02:12;8.27;;;7.47;;
6095;SDS011;25081;42.698;23.298;2023-08-24T12:04:22;8.33;;;7.53;;
6095;SDS011;25081;42.698;23.298;2023-08-24T12:06:33;12.07;;;7.63;;
6095;SDS011;25081;42.698;23.298;2023-08-24T12:08:45;8.50;;;7.60;;
6095;SDS011;25081;42.698;23.298;2023-08-24T12:10:55;8.30;;;7.23;;
6095;SDS011;25081;42.698;23.298;2023-08-24T12:13:05;10.73;;;7.80;;
6095;SDS011;25081;42.698;23.298;2023-08-24T12:15:16;10.03;;;8.50;;
6095;SDS011;25081;42.698;23.298;2023-08-24T12:17:26;9.80;;;8.63;;
6095;SDS011;25081;42.698;23.298;2023-08-24T12:19:37;9.47;;;8.57;;
6095;SDS011;25081;42.698;23.298;2023-08-24T12:21:51;8.73;;;7.63;;
6095;SDS011;25081;42.698;23.298;2023-08-24T12:24:02;10.00;;;8.50;;
6095;SDS011;25081;42.698;23.298;2023-08-24T12:26:19;9.70;;;8.63;;
6095;SDS011;25081;42.698;23.298;2023-08-24T12:28:29;12.37;;;8.93;;
6095;SDS011;25081;42.698;23.298;2023-08-24T12:30:47;9.50;;;7.50;;
6095;SDS011;25081;42.698;23.298;2023-08-24T12:32:57;8.50;;;7.60;;
6095;SDS011;25081;42.698;23.298;2023-08-24T12:35:08;9.20;;;7.80;;
6095;SDS011;25081;42.698;23.298;2023-08-24T12:37:19;9.30;;;8.40;;
6095;SDS011;25081;42.698;23.298;2023-08-24T12:39:32;8.77;;;7.90;;
6095;SDS011;25081;42.698;23.298;2023-08-24T12:41:40;10.20;;;8.73;;
6095;SDS011;25081;42.698;23.298;2023-08-24T12:43:51;9.43;;;8.43;;
6095;SDS011;25081;42.698;23.298;2023-08-24T12:46:01;8.67;;;7.80;;
6095;SDS011;25081;42.698;23.298;2023-08-24T12:48:12;9.73;;;7.87;;
6095;SDS011;25081;42.698;23.298;2023-08-24T12:50:22;8.97;;;8.03;;
6095;SDS011;25081;42.698;23.298;2023-08-24T12:52:33;9.80;;;8.80;;
6095;SDS011;25081;42.698;23.298;2023-08-24T12:54:44;8.27;;;7.17;;
6095;SDS011;25081;42.698;23.298;2023-08-24T12:56:54;10.00;;;9.10;;
6095;SDS011;25081;42.698;23.298;2023-08-24T12:59:04;13.00;;;8.20;;